createdAt,value
2017-01-13T00:00:39.933Z,0
2017-01-13T00:01:20.508Z,0
2017-01-13T00:02:00.938Z,0
2017-01-13T00:02:41.514Z,0
2017-01-13T00:03:21.964Z,0
2017-01-13T00:04:02.432Z,0
2017-01-13T00:04:43.918Z,0
2017-01-13T00:05:24.383Z,0
2017-01-13T00:06:04.868Z,0
2017-01-13T00:06:45.434Z,0
2017-01-13T00:07:26.140Z,0
2017-01-13T00:08:06.663Z,0
2017-01-13T00:08:50.964Z,0
2017-01-13T00:09:31.511Z,0
2017-01-13T00:10:12.004Z,0
2017-01-13T00:10:52.487Z,0
2017-01-13T00:11:33.009Z,0
2017-01-13T00:12:13.508Z,0
2017-01-13T00:12:53.964Z,0
2017-01-13T00:13:34.497Z,0
2017-01-13T00:14:14.982Z,0
2017-01-13T00:14:55.434Z,0
2017-01-13T00:15:36.000Z,0
2017-01-13T00:16:16.436Z,0
2017-01-13T00:16:56.942Z,0
2017-01-13T00:17:37.520Z,0
2017-01-13T00:18:18.135Z,0
2017-01-13T00:18:58.536Z,0
2017-01-13T00:19:39.057Z,0
2017-01-13T00:20:19.526Z,0
2017-01-13T00:21:00.012Z,0
2017-01-13T00:21:40.638Z,0
2017-01-13T00:22:21.067Z,0
2017-01-13T00:23:01.551Z,0
2017-01-13T00:23:42.001Z,0
2017-01-13T00:24:22.471Z,0
2017-01-13T00:25:02.975Z,0
2017-01-13T00:25:43.529Z,0
2017-01-13T00:26:23.953Z,0
2017-01-13T00:27:04.448Z,0
2017-01-13T00:27:44.936Z,0
2017-01-13T00:28:25.440Z,0
2017-01-13T00:29:05.956Z,0
2017-01-13T00:29:46.601Z,0
2017-01-13T00:30:27.129Z,0
2017-01-13T00:31:07.702Z,0
2017-01-13T00:31:48.253Z,0
2017-01-13T00:32:28.770Z,0
2017-01-13T00:33:09.124Z,0
2017-01-13T00:33:49.662Z,0
2017-01-13T00:34:30.112Z,0
2017-01-13T00:35:10.641Z,0
2017-01-13T00:35:51.176Z,0
2017-01-13T00:36:31.630Z,0
2017-01-13T00:37:12.107Z,0
2017-01-13T00:37:52.643Z,0
2017-01-13T00:38:33.101Z,0
2017-01-13T00:39:13.610Z,0
2017-01-13T00:39:54.102Z,0
2017-01-13T00:40:34.545Z,0
2017-01-13T00:41:15.035Z,0
2017-01-13T00:41:55.601Z,0
2017-01-13T00:42:36.043Z,0
2017-01-13T00:43:16.542Z,0
2017-01-13T00:43:57.062Z,0
2017-01-13T00:44:37.473Z,0
2017-01-13T00:45:18.059Z,0
2017-01-13T00:45:58.509Z,0
2017-01-13T00:46:39.016Z,0
2017-01-13T00:47:19.446Z,0
2017-01-13T00:48:00.007Z,0
2017-01-13T00:48:40.555Z,0
2017-01-13T00:49:20.925Z,0
2017-01-13T00:50:01.464Z,0
2017-01-13T00:50:41.985Z,0
2017-01-13T00:51:22.443Z,0
2017-01-13T00:52:02.867Z,0
2017-01-13T00:52:43.374Z,0
2017-01-13T00:53:23.928Z,0
2017-01-13T00:54:04.363Z,0
2017-01-13T00:54:44.964Z,0
2017-01-13T00:55:25.350Z,0
2017-01-13T00:56:06.012Z,0
2017-01-13T00:56:46.707Z,0
2017-01-13T00:57:27.131Z,0
2017-01-13T00:58:07.703Z,0
2017-01-13T00:58:48.158Z,0
2017-01-13T00:59:28.625Z,0
2017-01-13T01:00:09.132Z,0
2017-01-13T01:00:49.617Z,0
2017-01-13T01:01:30.107Z,0
2017-01-13T01:02:10.634Z,0
2017-01-13T01:02:51.105Z,0
2017-01-13T01:03:31.611Z,0
2017-01-13T01:04:12.142Z,0
2017-01-13T01:04:52.659Z,0
2017-01-13T01:05:33.124Z,0
2017-01-13T01:06:13.596Z,0
2017-01-13T01:06:54.068Z,0
2017-01-13T01:07:34.555Z,0
2017-01-13T01:08:15.040Z,0
2017-01-13T01:08:55.516Z,0
2017-01-13T01:09:36.017Z,0
2017-01-13T01:10:16.529Z,0
2017-01-13T01:10:56.960Z,0
2017-01-13T01:11:37.486Z,0
2017-01-13T01:12:18.034Z,0
2017-01-13T01:12:58.491Z,0
2017-01-13T01:13:38.985Z,0
2017-01-13T01:14:19.588Z,0
2017-01-13T01:15:00.067Z,0
2017-01-13T01:15:40.545Z,0
2017-01-13T01:16:21.076Z,0
2017-01-13T01:17:01.582Z,0
2017-01-13T01:17:42.136Z,0
2017-01-13T01:18:22.529Z,0
2017-01-13T01:19:03.118Z,0
2017-01-13T01:19:43.603Z,0
2017-01-13T01:20:24.045Z,0
2017-01-13T01:21:04.777Z,0
2017-01-13T01:21:45.374Z,0
2017-01-13T01:22:25.886Z,0
2017-01-13T01:23:06.350Z,0
2017-01-13T01:23:46.811Z,0
2017-01-13T01:24:27.350Z,0
2017-01-13T01:25:07.860Z,0
2017-01-13T01:25:48.273Z,0
2017-01-13T01:26:28.779Z,0
2017-01-13T01:27:09.367Z,0
2017-01-13T01:27:49.780Z,0
2017-01-13T01:28:30.371Z,0
2017-01-13T01:29:10.913Z,0
2017-01-13T01:29:51.472Z,0
2017-01-13T01:30:31.840Z,0
2017-01-13T01:31:12.371Z,0
2017-01-13T01:31:52.955Z,0
2017-01-13T01:32:33.323Z,0
2017-01-13T01:33:13.792Z,0
2017-01-13T01:33:54.292Z,0
2017-01-13T01:34:34.740Z,0
2017-01-13T01:35:15.266Z,0
2017-01-13T01:35:55.751Z,0
2017-01-13T01:36:36.235Z,0
2017-01-13T01:37:16.734Z,0
2017-01-13T01:37:57.217Z,0
2017-01-13T01:38:37.756Z,0
2017-01-13T01:39:18.233Z,0
2017-01-13T01:39:58.740Z,0
2017-01-13T01:40:39.295Z,0
2017-01-13T01:41:20.057Z,0
2017-01-13T01:42:00.600Z,0
2017-01-13T01:42:41.065Z,0
2017-01-13T01:43:21.534Z,0
2017-01-13T01:44:02.002Z,0
2017-01-13T01:44:42.486Z,0
2017-01-13T01:45:23.041Z,0
2017-01-13T01:46:03.505Z,0
2017-01-13T01:46:44.045Z,0
2017-01-13T01:47:24.489Z,0
2017-01-13T01:48:04.987Z,0
2017-01-13T01:48:45.538Z,0
2017-01-13T01:49:26.029Z,0
2017-01-13T01:50:06.536Z,0
2017-01-13T01:50:47.008Z,0
2017-01-13T01:51:27.496Z,0
2017-01-13T01:52:07.959Z,0
2017-01-13T01:52:48.496Z,0
2017-01-13T01:53:29.055Z,0
2017-01-13T01:54:09.477Z,0
2017-01-13T01:54:50.035Z,0
2017-01-13T01:55:30.522Z,0
2017-01-13T01:56:11.049Z,0
2017-01-13T01:56:51.506Z,0
2017-01-13T01:57:32.069Z,0
2017-01-13T01:58:12.567Z,0
2017-01-13T01:58:53.021Z,0
2017-01-13T01:59:33.733Z,0
2017-01-13T02:00:14.234Z,0
2017-01-13T02:00:54.695Z,0
2017-01-13T02:01:35.200Z,0
2017-01-13T02:02:15.667Z,0
2017-01-13T02:02:56.165Z,0
2017-01-13T02:03:36.699Z,0
2017-01-13T02:04:17.122Z,0
2017-01-13T02:04:57.622Z,0
2017-01-13T02:05:38.153Z,0
2017-01-13T02:06:18.645Z,0
2017-01-13T02:06:59.233Z,0
2017-01-13T02:07:39.700Z,0
2017-01-13T02:08:20.386Z,0
2017-01-13T02:09:00.903Z,0
2017-01-13T02:09:41.330Z,0
2017-01-13T02:10:21.832Z,0
2017-01-13T02:11:02.306Z,0
2017-01-13T02:11:42.861Z,0
2017-01-13T02:12:23.309Z,0
2017-01-13T02:13:03.803Z,0
2017-01-13T02:13:44.351Z,0
2017-01-13T02:14:24.818Z,0
2017-01-13T02:15:05.338Z,0
2017-01-13T02:15:45.871Z,0
2017-01-13T02:16:26.570Z,0
2017-01-13T02:17:07.107Z,0
2017-01-13T02:17:47.611Z,0
2017-01-13T02:18:28.176Z,0
2017-01-13T02:19:08.684Z,0
2017-01-13T02:19:49.149Z,0
2017-01-13T02:20:29.690Z,0
2017-01-13T02:21:10.167Z,0
2017-01-13T02:21:50.689Z,0
2017-01-13T02:22:31.311Z,0
2017-01-13T02:23:11.868Z,0
2017-01-13T02:23:52.407Z,0
2017-01-13T02:24:32.883Z,0
2017-01-13T02:25:13.311Z,0
2017-01-13T02:25:53.976Z,0
2017-01-13T02:26:34.509Z,0
2017-01-13T02:27:15.012Z,0
2017-01-13T02:27:55.496Z,0
2017-01-13T02:28:36.007Z,0
2017-01-13T02:29:16.635Z,0
2017-01-13T02:29:57.217Z,0
2017-01-13T02:30:37.745Z,0
2017-01-13T02:31:18.239Z,0
2017-01-13T02:31:58.799Z,0
2017-01-13T02:32:39.357Z,0
2017-01-13T02:33:19.867Z,0
2017-01-13T02:34:00.373Z,0
2017-01-13T02:34:40.849Z,0
2017-01-13T02:35:21.351Z,0
2017-01-13T02:36:02.045Z,0
2017-01-13T02:36:42.488Z,0
2017-01-13T02:37:22.961Z,0
2017-01-13T02:38:03.621Z,0
2017-01-13T02:38:44.140Z,0
2017-01-13T02:39:24.614Z,0
2017-01-13T02:40:05.140Z,0
2017-01-13T02:40:45.745Z,0
2017-01-13T02:41:26.214Z,0
2017-01-13T02:42:07.649Z,0
2017-01-13T02:42:48.096Z,0
2017-01-13T02:43:28.545Z,0
2017-01-13T02:44:09.028Z,0
2017-01-13T02:44:49.510Z,0
2017-01-13T02:45:30.227Z,0
2017-01-13T02:46:10.562Z,0
2017-01-13T02:46:51.307Z,0
2017-01-13T02:47:31.799Z,0
2017-01-13T02:48:12.310Z,0
2017-01-13T02:48:52.872Z,0
2017-01-13T02:49:33.350Z,0
2017-01-13T02:50:13.819Z,0
2017-01-13T02:50:54.566Z,0
2017-01-13T02:51:35.049Z,0
2017-01-13T02:52:15.519Z,0
2017-01-13T02:52:56.024Z,0
2017-01-13T02:53:36.511Z,0
2017-01-13T02:54:16.946Z,0
2017-01-13T02:54:57.487Z,0
2017-01-13T02:55:37.960Z,0
2017-01-13T02:56:18.538Z,0
2017-01-13T02:56:59.079Z,0
2017-01-13T02:57:39.620Z,0
2017-01-13T02:58:20.103Z,0
2017-01-13T02:59:00.578Z,0
2017-01-13T02:59:41.110Z,0
2017-01-13T03:00:21.811Z,0
2017-01-13T03:01:02.294Z,0
2017-01-13T03:01:42.873Z,0
2017-01-13T03:02:23.601Z,0
2017-01-13T03:03:05.201Z,0
2017-01-13T03:03:46.996Z,0
2017-01-13T03:04:27.796Z,0
2017-01-13T03:05:08.969Z,0
2017-01-13T03:05:49.769Z,0
2017-01-13T03:06:30.270Z,0
2017-01-13T03:07:10.713Z,0
2017-01-13T03:07:51.248Z,0
2017-01-13T03:08:31.749Z,0
2017-01-13T03:09:12.254Z,0
2017-01-13T03:09:52.760Z,0
2017-01-13T03:10:33.203Z,0
2017-01-13T03:11:13.750Z,0
2017-01-13T03:11:54.177Z,0
2017-01-13T03:12:34.694Z,0
2017-01-13T03:13:15.212Z,0
2017-01-13T03:13:55.648Z,0
2017-01-13T03:14:36.110Z,0
2017-01-13T03:15:16.612Z,0
2017-01-13T03:15:57.294Z,0
2017-01-13T03:16:37.733Z,0
2017-01-13T03:17:18.318Z,0
2017-01-13T03:17:58.760Z,0
2017-01-13T03:18:39.262Z,0
2017-01-13T03:19:19.739Z,0
2017-01-13T03:20:00.236Z,0
2017-01-13T03:20:40.734Z,0
2017-01-13T03:21:21.324Z,0
2017-01-13T03:22:01.667Z,0
2017-01-13T03:22:42.184Z,0
2017-01-13T03:23:22.785Z,0
2017-01-13T03:24:03.403Z,0
2017-01-13T03:24:43.894Z,0
2017-01-13T03:25:24.382Z,0
2017-01-13T03:26:04.844Z,0
2017-01-13T03:26:45.289Z,0
2017-01-13T03:27:25.727Z,0
2017-01-13T03:28:06.391Z,0
2017-01-13T03:28:46.838Z,0
2017-01-13T03:29:27.591Z,0
2017-01-13T03:30:08.423Z,0
2017-01-13T03:30:49.254Z,0
2017-01-13T03:31:29.816Z,0
2017-01-13T03:32:10.408Z,0
2017-01-13T03:32:50.874Z,0
2017-01-13T03:33:31.478Z,0
2017-01-13T03:34:11.945Z,0
2017-01-13T03:34:52.510Z,0
2017-01-13T03:35:33.169Z,0
2017-01-13T03:36:13.819Z,0
2017-01-13T03:36:54.511Z,0
2017-01-13T03:37:35.044Z,0
2017-01-13T03:38:15.607Z,0
2017-01-13T03:38:55.947Z,0
2017-01-13T03:39:36.547Z,0
2017-01-13T03:40:17.060Z,0
2017-01-13T03:40:57.507Z,0
2017-01-13T03:41:38.167Z,0
2017-01-13T03:42:18.480Z,0
2017-01-13T03:42:58.992Z,0
2017-01-13T03:43:39.460Z,0
2017-01-13T03:44:19.969Z,0
2017-01-13T03:45:00.485Z,0
2017-01-13T03:45:40.980Z,0
2017-01-13T03:46:21.448Z,0
2017-01-13T03:47:01.942Z,0
2017-01-13T03:47:42.433Z,0
2017-01-13T03:48:22.917Z,0
2017-01-13T03:49:03.414Z,0
2017-01-13T03:49:43.865Z,0
2017-01-13T03:50:24.355Z,0
2017-01-13T03:51:05.038Z,0
2017-01-13T03:51:45.505Z,0
2017-01-13T03:52:25.951Z,0
2017-01-13T03:53:06.547Z,0
2017-01-13T03:53:46.944Z,0
2017-01-13T03:54:27.409Z,0
2017-01-13T03:55:08.176Z,0
2017-01-13T03:55:48.340Z,0
2017-01-13T03:56:28.883Z,0
2017-01-13T03:57:09.338Z,0
2017-01-13T03:57:49.858Z,0
2017-01-13T03:58:30.356Z,0
2017-01-13T03:59:10.798Z,0
2017-01-13T03:59:51.251Z,0
2017-01-13T04:00:31.759Z,0
2017-01-13T04:01:12.227Z,0
2017-01-13T04:01:52.713Z,0
2017-01-13T04:02:33.243Z,0
2017-01-13T04:03:13.694Z,0
2017-01-13T04:03:54.203Z,0
2017-01-13T04:04:34.666Z,0
2017-01-13T04:05:15.116Z,0
2017-01-13T04:05:55.649Z,0
2017-01-13T04:06:36.117Z,0
2017-01-13T04:07:16.607Z,0
2017-01-13T04:07:57.132Z,0
2017-01-13T04:08:37.582Z,0
2017-01-13T04:09:18.123Z,0
2017-01-13T04:09:58.541Z,0
2017-01-13T04:10:39.040Z,0
2017-01-13T04:11:19.523Z,0
2017-01-13T04:12:00.022Z,0
2017-01-13T04:12:40.495Z,0
2017-01-13T04:13:20.968Z,0
2017-01-13T04:14:01.535Z,0
2017-01-13T04:14:42.035Z,0
2017-01-13T04:15:22.412Z,0
2017-01-13T04:16:02.979Z,0
2017-01-13T04:16:43.424Z,0
2017-01-13T04:17:23.939Z,0
2017-01-13T04:18:04.402Z,0
2017-01-13T04:18:44.905Z,0
2017-01-13T04:19:25.404Z,0
2017-01-13T04:20:05.921Z,0
2017-01-13T04:20:46.443Z,0
2017-01-13T04:21:26.812Z,0
2017-01-13T04:22:07.394Z,0
2017-01-13T04:22:47.950Z,0
2017-01-13T04:23:28.431Z,0
2017-01-13T04:24:08.966Z,0
2017-01-13T04:24:49.410Z,0
2017-01-13T04:25:29.950Z,0
2017-01-13T04:27:43.227Z,0
2017-01-13T04:28:23.818Z,0
2017-01-13T04:29:04.233Z,0
2017-01-13T04:29:44.693Z,0
2017-01-13T04:30:25.190Z,0
2017-01-13T04:31:05.654Z,0
2017-01-13T04:31:46.167Z,0
2017-01-13T04:32:26.614Z,0
2017-01-13T04:33:07.182Z,0
2017-01-13T04:33:47.627Z,0
2017-01-13T04:34:28.152Z,0
2017-01-13T04:35:08.632Z,0
2017-01-13T04:35:49.258Z,0
2017-01-13T04:36:29.717Z,0
2017-01-13T04:37:10.207Z,0
2017-01-13T04:37:50.665Z,0
2017-01-13T04:38:31.165Z,0
2017-01-13T04:39:11.619Z,0
2017-01-13T04:39:52.137Z,0
2017-01-13T04:40:32.667Z,0
2017-01-13T04:41:13.070Z,0
2017-01-13T04:41:53.730Z,0
2017-01-13T04:42:34.273Z,0
2017-01-13T04:43:14.688Z,0
2017-01-13T04:43:55.189Z,0
2017-01-13T04:44:35.640Z,0
2017-01-13T04:45:16.302Z,0
2017-01-13T04:45:56.778Z,0
2017-01-13T04:46:37.250Z,0
2017-01-13T04:47:17.734Z,0
2017-01-13T04:47:58.233Z,0
2017-01-13T04:48:38.749Z,0
2017-01-13T04:49:19.244Z,0
2017-01-13T04:49:59.725Z,0
2017-01-13T04:50:40.210Z,0
2017-01-13T04:51:20.760Z,0
2017-01-13T04:52:01.279Z,0
2017-01-13T04:52:41.686Z,0
2017-01-13T04:53:22.203Z,0
2017-01-13T04:54:02.696Z,0
2017-01-13T04:54:43.174Z,0
2017-01-13T04:55:23.730Z,0
2017-01-13T04:56:04.174Z,0
2017-01-13T04:56:44.602Z,0
2017-01-13T04:57:25.164Z,0
2017-01-13T04:58:05.564Z,0
2017-01-13T04:58:46.123Z,0
2017-01-13T04:59:26.527Z,0
2017-01-13T05:00:07.119Z,0
2017-01-13T05:00:47.518Z,0
2017-01-13T05:01:28.040Z,0
2017-01-13T05:02:08.548Z,0
2017-01-13T05:02:49.059Z,0
2017-01-13T05:03:29.558Z,0
2017-01-13T05:04:10.109Z,0
2017-01-13T05:04:50.654Z,0
2017-01-13T05:05:31.080Z,0
2017-01-13T05:06:11.683Z,0
2017-01-13T05:06:52.085Z,0
2017-01-13T05:07:32.535Z,0
2017-01-13T05:08:13.028Z,0
2017-01-13T05:08:53.635Z,0
2017-01-13T05:09:34.454Z,0
2017-01-13T05:10:14.932Z,0
2017-01-13T05:10:55.393Z,0
2017-01-13T05:11:36.068Z,0
2017-01-13T05:12:16.425Z,0
2017-01-13T05:12:56.888Z,0
2017-01-13T05:13:37.398Z,0
2017-01-13T05:14:17.925Z,0
2017-01-13T05:14:58.362Z,0
2017-01-13T05:15:38.956Z,0
2017-01-13T05:16:19.510Z,0
2017-01-13T05:16:59.931Z,0
2017-01-13T05:17:40.465Z,0
2017-01-13T05:18:20.967Z,0
2017-01-13T05:19:01.597Z,0
2017-01-13T05:19:42.210Z,0
2017-01-13T05:20:22.764Z,0
2017-01-13T05:21:03.157Z,0
2017-01-13T05:21:43.674Z,0
2017-01-13T05:22:24.144Z,0
2017-01-13T05:23:04.642Z,0
2017-01-13T05:23:45.072Z,0
2017-01-13T05:24:25.668Z,0
2017-01-13T05:25:06.138Z,0
2017-01-13T05:25:46.601Z,0
2017-01-13T05:26:27.053Z,0
2017-01-13T05:27:07.935Z,0
2017-01-13T05:27:48.413Z,0
2017-01-13T05:28:28.898Z,0
2017-01-13T05:29:09.365Z,0
2017-01-13T05:29:49.885Z,0
2017-01-13T05:30:30.392Z,0
2017-01-13T05:31:10.858Z,0
2017-01-13T05:31:51.394Z,0
2017-01-13T05:32:32.032Z,0
2017-01-13T05:33:12.566Z,0
2017-01-13T05:33:53.010Z,0
2017-01-13T05:34:33.472Z,0
2017-01-13T05:35:13.968Z,0
2017-01-13T05:35:54.528Z,0
2017-01-13T05:36:34.973Z,0
2017-01-13T05:37:15.440Z,0
2017-01-13T05:37:56.120Z,0
2017-01-13T05:38:36.491Z,0
2017-01-13T05:39:17.014Z,0
2017-01-13T05:39:57.384Z,0
2017-01-13T05:40:37.921Z,0
2017-01-13T05:41:18.622Z,0
2017-01-13T05:41:59.119Z,0
2017-01-13T05:42:39.605Z,0
2017-01-13T05:43:20.115Z,0
2017-01-13T05:44:00.661Z,0
2017-01-13T05:44:41.264Z,0
2017-01-13T05:45:21.809Z,0
2017-01-13T05:46:02.308Z,0
2017-01-13T05:46:42.780Z,0
2017-01-13T05:47:23.256Z,0
2017-01-13T05:48:03.810Z,0
2017-01-13T05:48:44.311Z,0
2017-01-13T05:49:24.712Z,0
2017-01-13T05:50:05.203Z,0
2017-01-13T05:50:45.683Z,0
2017-01-13T05:51:26.132Z,0
2017-01-13T05:52:06.758Z,0
2017-01-13T05:52:47.339Z,0
2017-01-13T05:53:27.878Z,0
2017-01-13T05:54:08.398Z,0
2017-01-13T05:54:48.819Z,0
2017-01-13T05:55:29.397Z,0
2017-01-13T05:56:09.827Z,0
2017-01-13T05:56:50.350Z,0
2017-01-13T05:57:30.923Z,0
2017-01-13T05:58:11.309Z,0
2017-01-13T05:58:51.837Z,0
2017-01-13T05:59:32.320Z,0
2017-01-13T06:00:12.899Z,0
2017-01-13T06:00:53.375Z,0
2017-01-13T06:01:34.019Z,0
2017-01-13T06:02:15.435Z,0
2017-01-13T06:02:56.152Z,0
2017-01-13T06:03:36.683Z,0
2017-01-13T06:04:20.440Z,0
2017-01-13T06:05:01.323Z,0
2017-01-13T06:05:42.082Z,0
2017-01-13T06:06:22.787Z,0
2017-01-13T06:07:05.160Z,0
2017-01-13T06:07:46.810Z,0
2017-01-13T06:10:05.280Z,0
2017-01-13T06:10:46.016Z,0
2017-01-13T06:11:26.515Z,0
2017-01-13T06:14:02.376Z,0
2017-01-13T06:14:50.209Z,0
2017-01-13T06:15:36.012Z,0
2017-01-13T06:16:19.186Z,0
2017-01-13T06:17:00.090Z,0
2017-01-13T06:17:40.603Z,0
2017-01-13T06:18:21.491Z,0
2017-01-13T06:19:02.037Z,0
2017-01-13T06:19:42.605Z,0
2017-01-13T06:20:24.162Z,0
2017-01-13T06:21:08.348Z,0
2017-01-13T06:21:48.909Z,0
2017-01-13T06:22:29.691Z,0
2017-01-13T06:23:10.639Z,0
2017-01-13T06:23:51.162Z,0
2017-01-13T06:24:31.657Z,0
2017-01-13T06:25:12.130Z,0
2017-01-13T06:25:52.633Z,0
2017-01-13T06:26:33.170Z,0
2017-01-13T06:27:13.838Z,0
2017-01-13T06:27:54.223Z,0
2017-01-13T06:28:35.034Z,0
2017-01-13T06:29:15.686Z,0
2017-01-13T06:29:56.386Z,0
2017-01-13T06:30:37.045Z,0
2017-01-13T06:31:17.592Z,0
2017-01-13T06:31:58.084Z,0
2017-01-13T06:32:38.540Z,0
2017-01-13T06:33:19.305Z,0
2017-01-13T06:34:00.123Z,0
2017-01-13T06:34:40.902Z,0
2017-01-13T06:35:21.665Z,0
2017-01-13T06:36:03.295Z,0
2017-01-13T06:36:45.302Z,0
2017-01-13T06:40:03.383Z,0
2017-01-13T06:40:43.642Z,0
2017-01-13T06:41:24.517Z,0
2017-01-13T06:42:04.946Z,0
2017-01-13T06:42:46.114Z,0
2017-01-13T06:43:26.570Z,0
2017-01-13T06:44:07.709Z,0
2017-01-13T06:44:48.683Z,0
2017-01-13T06:45:29.089Z,0
2017-01-13T06:46:11.690Z,0
2017-01-13T06:46:52.742Z,0
2017-01-13T06:47:34.690Z,0
2017-01-13T06:48:15.215Z,0
2017-01-13T06:48:55.668Z,0
2017-01-13T06:49:37.461Z,0
2017-01-13T06:50:18.305Z,0
2017-01-13T06:50:58.860Z,0
2017-01-13T06:51:39.417Z,0
2017-01-13T06:52:19.890Z,0
2017-01-13T06:53:00.369Z,0
2017-01-13T06:53:40.924Z,0
2017-01-13T06:54:21.887Z,0
2017-01-13T06:55:02.257Z,0
2017-01-13T06:55:42.606Z,0
2017-01-13T06:56:23.175Z,0
2017-01-13T06:57:03.928Z,0
2017-01-13T06:57:44.825Z,0
2017-01-13T06:58:25.519Z,0
2017-01-13T06:59:06.161Z,0
2017-01-13T06:59:46.630Z,0
2017-01-13T07:00:27.140Z,0
2017-01-13T07:03:05.398Z,0
2017-01-13T07:03:45.886Z,0
2017-01-13T07:04:26.382Z,0
2017-01-13T07:05:06.891Z,0
2017-01-13T07:05:47.395Z,0
2017-01-13T07:06:27.886Z,0
2017-01-13T07:07:08.431Z,0
2017-01-13T07:07:48.944Z,0
2017-01-13T07:08:29.451Z,0
2017-01-13T07:09:10.072Z,0
2017-01-13T07:09:50.574Z,0
2017-01-13T07:10:31.070Z,0
2017-01-13T07:11:11.513Z,0
2017-01-13T07:11:52.006Z,0
2017-01-13T07:12:32.518Z,0
2017-01-13T07:13:13.011Z,0
2017-01-13T07:13:53.541Z,0
2017-01-13T07:14:34.056Z,0
2017-01-13T07:15:14.566Z,0
2017-01-13T07:15:55.100Z,0
2017-01-13T07:16:35.585Z,0
2017-01-13T07:17:16.105Z,0
2017-01-13T07:17:56.593Z,0
2017-01-13T07:18:37.105Z,5
2017-01-13T07:19:17.657Z,5
2017-01-13T07:19:58.082Z,5
2017-01-13T07:20:38.552Z,5
2017-01-13T07:21:19.025Z,5
2017-01-13T07:21:59.502Z,5
2017-01-13T07:22:40.005Z,5
2017-01-13T07:23:20.523Z,5
2017-01-13T07:24:01.027Z,5
2017-01-13T07:24:41.536Z,5
2017-01-13T07:25:22.040Z,5
2017-01-13T07:26:02.544Z,5
2017-01-13T07:26:43.061Z,5
2017-01-13T07:27:23.547Z,5
2017-01-13T07:28:04.064Z,5
2017-01-13T07:28:44.547Z,10
2017-01-13T07:29:25.036Z,10
2017-01-13T07:30:05.522Z,5
2017-01-13T07:30:46.026Z,5
2017-01-13T07:31:26.558Z,10
2017-01-13T07:32:07.021Z,10
2017-01-13T07:32:47.530Z,10
2017-01-13T07:33:28.028Z,10
2017-01-13T07:34:08.535Z,10
2017-01-13T07:34:49.047Z,10
2017-01-13T07:35:29.517Z,10
2017-01-13T07:36:10.021Z,10
2017-01-13T07:38:28.433Z,10
2017-01-13T07:39:08.911Z,10
2017-01-13T07:39:49.399Z,10
2017-01-13T07:40:29.902Z,10
2017-01-13T07:41:10.413Z,10
2017-01-13T07:41:50.919Z,10
2017-01-13T07:42:31.393Z,10
2017-01-13T07:43:11.903Z,10
2017-01-13T07:43:52.601Z,10
2017-01-13T07:44:33.275Z,15
2017-01-13T07:45:14.003Z,15
2017-01-13T07:45:54.425Z,15
2017-01-13T07:46:34.992Z,20
2017-01-13T07:47:15.458Z,20
2017-01-13T07:47:55.954Z,20
2017-01-13T07:48:36.443Z,20
2017-01-13T07:49:16.909Z,25
2017-01-13T07:51:46.470Z,25
2017-01-13T07:52:27.683Z,25
2017-01-13T07:53:07.519Z,25
2017-01-13T07:53:47.987Z,25
2017-01-13T07:54:28.608Z,25
2017-01-13T07:55:09.832Z,30
2017-01-13T07:55:50.687Z,30
2017-01-13T07:56:31.218Z,25
2017-01-13T07:57:11.669Z,30
2017-01-13T07:57:52.197Z,30
2017-01-13T07:58:32.635Z,30
2017-01-13T07:59:13.147Z,30
2017-01-13T07:59:53.647Z,30
2017-01-13T08:00:34.102Z,30
2017-01-13T08:01:14.633Z,30
2017-01-13T08:01:55.128Z,35
2017-01-13T08:02:35.667Z,35
2017-01-13T08:03:16.219Z,35
2017-01-13T08:03:56.691Z,35
2017-01-13T08:04:37.169Z,35
2017-01-13T08:05:17.713Z,35
2017-01-13T08:05:58.235Z,35
2017-01-13T08:06:38.731Z,35
2017-01-13T08:07:19.223Z,35
2017-01-13T08:07:59.781Z,35
2017-01-13T08:08:40.315Z,35
2017-01-13T08:09:22.109Z,35
2017-01-13T08:10:02.561Z,35
2017-01-13T08:10:43.061Z,35
2017-01-13T08:11:23.579Z,40
2017-01-13T08:12:04.091Z,40
2017-01-13T08:12:44.589Z,40
2017-01-13T08:13:25.109Z,40
2017-01-13T08:14:05.589Z,40
2017-01-13T08:14:46.088Z,40
2017-01-13T08:15:26.605Z,40
2017-01-13T08:16:07.097Z,40
2017-01-13T08:16:47.837Z,40
2017-01-13T08:17:28.319Z,45
2017-01-13T08:18:08.826Z,45
2017-01-13T08:18:49.333Z,45
2017-01-13T08:19:29.832Z,45
2017-01-13T08:20:10.338Z,45
2017-01-13T08:20:50.865Z,45
2017-01-13T08:21:31.453Z,45
2017-01-13T08:22:11.960Z,45
2017-01-13T08:22:52.503Z,45
2017-01-13T08:23:33.950Z,50
2017-01-13T08:24:14.441Z,50
2017-01-13T08:24:54.954Z,50
2017-01-13T08:25:35.477Z,50
2017-01-13T08:26:16.051Z,50
2017-01-13T08:26:56.535Z,50
2017-01-13T08:27:37.020Z,55
2017-01-13T08:28:17.510Z,55
2017-01-13T08:28:57.980Z,55
2017-01-13T08:29:38.472Z,55
2017-01-13T08:30:18.979Z,55
2017-01-13T08:30:59.473Z,55
2017-01-13T08:31:39.985Z,60
2017-01-13T08:32:20.459Z,60
2017-01-13T08:33:00.971Z,60
2017-01-13T08:33:42.836Z,60
2017-01-13T08:34:23.261Z,60
2017-01-13T08:35:03.784Z,60
2017-01-13T08:35:44.281Z,60
2017-01-13T08:36:24.782Z,60
2017-01-13T08:37:05.270Z,60
2017-01-13T08:37:45.768Z,60
2017-01-13T08:38:26.320Z,60
2017-01-13T08:39:06.750Z,60
2017-01-13T08:39:47.223Z,65
2017-01-13T08:40:27.731Z,65
2017-01-13T08:41:08.272Z,65
2017-01-13T08:41:48.908Z,65
2017-01-13T08:42:29.415Z,65
2017-01-13T08:43:09.900Z,65
2017-01-13T08:43:50.479Z,65
2017-01-13T08:44:30.965Z,65
2017-01-13T08:45:11.570Z,70
2017-01-13T08:45:52.112Z,70
2017-01-13T08:46:32.742Z,70
2017-01-13T08:47:13.138Z,70
2017-01-13T08:47:53.610Z,70
2017-01-13T08:48:34.058Z,70
2017-01-13T08:49:14.588Z,70
2017-01-13T08:49:55.056Z,75
2017-01-13T08:50:35.529Z,75
2017-01-13T08:53:09.405Z,75
2017-01-13T08:53:49.924Z,80
2017-01-13T08:54:30.458Z,80
2017-01-13T08:55:10.943Z,80
2017-01-13T08:55:51.473Z,80
2017-01-13T08:56:31.978Z,80
2017-01-13T08:57:13.211Z,85
2017-01-13T08:57:53.714Z,85
2017-01-13T08:58:34.268Z,85
2017-01-13T08:59:14.751Z,85
2017-01-13T08:59:55.215Z,85
2017-01-13T09:00:35.695Z,85
2017-01-13T09:01:16.214Z,90
2017-01-13T09:01:56.663Z,90
2017-01-13T09:02:37.188Z,90
2017-01-13T09:03:17.649Z,90
2017-01-13T09:03:58.131Z,95
2017-01-13T09:04:39.432Z,95
2017-01-13T09:05:19.937Z,95
2017-01-13T09:06:03.625Z,95
2017-01-13T09:08:19.404Z,100
2017-01-13T09:09:00.507Z,100
2017-01-13T09:09:41.060Z,100
2017-01-13T09:10:21.558Z,100
2017-01-13T09:11:02.068Z,100
2017-01-13T09:11:42.624Z,100
2017-01-13T09:12:23.107Z,100
2017-01-13T09:13:03.609Z,100
2017-01-13T09:13:44.116Z,100
2017-01-13T09:14:24.622Z,100
2017-01-13T09:15:05.121Z,100
2017-01-13T09:15:45.641Z,100
2017-01-13T09:16:26.205Z,100
2017-01-13T09:17:06.699Z,100
2017-01-13T09:17:47.227Z,100
2017-01-13T09:18:28.032Z,100
2017-01-13T09:19:08.574Z,100
2017-01-13T09:19:49.064Z,100
2017-01-13T09:20:29.560Z,100
2017-01-13T09:21:10.063Z,100
2017-01-13T09:21:50.577Z,100
2017-01-13T09:22:31.104Z,100
2017-01-13T09:23:11.582Z,100
2017-01-13T09:23:52.032Z,100
2017-01-13T09:24:32.499Z,100
2017-01-13T09:25:12.960Z,100
2017-01-13T09:25:53.458Z,100
2017-01-13T09:26:33.999Z,100
2017-01-13T09:27:14.603Z,105
2017-01-13T09:27:54.968Z,105
2017-01-13T09:28:35.454Z,105
2017-01-13T09:30:52.522Z,115
2017-01-13T09:31:33.234Z,115
2017-01-13T09:32:13.631Z,115
2017-01-13T09:32:54.153Z,120
2017-01-13T09:33:34.606Z,120
2017-01-13T09:34:15.077Z,120
2017-01-13T09:34:55.524Z,120
2017-01-13T09:35:36.028Z,120
2017-01-13T09:36:16.528Z,120
2017-01-13T09:36:57.065Z,125
2017-01-13T09:37:37.568Z,125
2017-01-13T09:38:18.044Z,125
2017-01-13T09:38:58.591Z,130
2017-01-13T09:39:39.059Z,130
2017-01-13T09:40:19.549Z,130
2017-01-13T09:41:00.028Z,130
2017-01-13T09:41:40.513Z,130
2017-01-13T09:42:21.002Z,130
2017-01-13T09:43:01.483Z,130
2017-01-13T09:43:41.975Z,135
2017-01-13T09:44:22.514Z,135
2017-01-13T09:45:02.976Z,135
2017-01-13T09:45:43.485Z,135
2017-01-13T09:46:23.998Z,130
2017-01-13T09:47:04.487Z,130
2017-01-13T09:47:44.991Z,130
2017-01-13T09:48:25.589Z,130
2017-01-13T09:49:06.148Z,130
2017-01-13T09:49:46.644Z,130
2017-01-13T09:50:27.156Z,130
2017-01-13T09:51:07.823Z,130
2017-01-13T09:51:51.801Z,135
2017-01-13T09:54:05.814Z,135
2017-01-13T09:56:40.032Z,130
2017-01-13T09:57:21.233Z,135
2017-01-13T09:58:01.717Z,135
2017-01-13T09:58:42.397Z,135
2017-01-13T09:59:22.940Z,130
2017-01-13T10:00:03.429Z,135
2017-01-13T10:00:43.892Z,135
2017-01-13T10:01:24.898Z,140
2017-01-13T10:02:05.381Z,135
2017-01-13T10:02:45.954Z,135
2017-01-13T10:03:32.268Z,135
2017-01-13T10:04:18.747Z,135
2017-01-13T10:05:07.668Z,135
2017-01-13T10:05:52.208Z,135
2017-01-13T10:06:39.690Z,135
2017-01-13T10:07:19.343Z,135
2017-01-13T10:08:03.964Z,135
2017-01-13T10:08:45.709Z,135
2017-01-13T10:09:26.173Z,135
2017-01-13T10:10:06.696Z,135
2017-01-13T10:10:47.117Z,140
2017-01-13T10:11:32.858Z,145
2017-01-13T10:12:14.026Z,145
2017-01-13T10:12:57.671Z,145
2017-01-13T10:13:38.278Z,145
2017-01-13T10:14:18.767Z,145
2017-01-13T10:14:59.408Z,140